createdAt,value
2022-12-16T00:01:25.182Z,14.10
2022-12-16T00:03:55.171Z,14.10
2022-12-16T00:06:23.932Z,14.10
2022-12-16T00:08:51.816Z,14.10
2022-12-16T00:11:19.857Z,14.10
2022-12-16T00:13:47.616Z,14.10
2022-12-16T00:16:16.784Z,14.10
2022-12-16T00:18:44.189Z,14.10
2022-12-16T00:21:11.050Z,14.00
2022-12-16T00:23:44.364Z,14.10
2022-12-16T00:26:12.232Z,14.10
2022-12-16T00:28:39.799Z,14.10
2022-12-16T00:31:07.088Z,14.20
2022-12-16T00:33:34.254Z,14.20
2022-12-16T00:36:01.153Z,14.20
2022-12-16T00:38:27.824Z,14.40
2022-12-16T00:40:54.803Z,14.40
2022-12-16T00:43:21.694Z,14.40
2022-12-16T00:45:48.989Z,14.40
2022-12-16T00:48:16.145Z,14.40
2022-12-16T00:50:49.395Z,14.50
2022-12-16T00:53:19.528Z,14.50
2022-12-16T00:55:46.485Z,14.50
2022-12-16T00:58:13.625Z,14.50
2022-12-16T01:00:40.917Z,14.60
2022-12-16T01:03:07.608Z,14.60
2022-12-16T01:05:34.313Z,14.60
2022-12-16T01:08:00.941Z,14.60
2022-12-16T01:10:27.492Z,14.70
2022-12-16T01:12:54.027Z,14.70
2022-12-16T01:15:21.858Z,14.70
2022-12-16T01:17:49.612Z,14.60
2022-12-16T01:20:16.238Z,14.70
2022-12-16T01:22:42.893Z,14.70
2022-12-16T01:25:12.819Z,14.70
2022-12-16T01:27:39.852Z,14.80
2022-12-16T01:30:07.257Z,14.80
2022-12-16T01:32:33.822Z,14.80
2022-12-16T01:35:00.502Z,15.40
2022-12-16T01:37:27.060Z,14.80
2022-12-16T01:39:53.589Z,14.90
2022-12-16T01:42:22.734Z,14.80
2022-12-16T01:44:52.069Z,14.80
2022-12-16T01:47:23.932Z,14.80
2022-12-16T01:50:03.700Z,14.80
2022-12-16T01:52:33.953Z,14.80
2022-12-16T01:55:07.118Z,14.80
2022-12-16T01:57:41.883Z,14.80
2022-12-16T02:00:10.350Z,14.80
2022-12-16T02:02:37.251Z,14.90
2022-12-16T02:05:22.354Z,14.90
2022-12-16T02:08:07.449Z,14.90
2022-12-16T02:10:55.036Z,14.90
2022-12-16T02:13:58.859Z,14.90
2022-12-16T02:16:39.334Z,14.80
2022-12-16T02:19:29.858Z,14.80
2022-12-16T02:22:40.159Z,14.80
2022-12-16T02:25:31.111Z,14.70
2022-12-16T02:28:23.256Z,14.70
2022-12-16T02:30:56.176Z,14.70
2022-12-16T02:33:26.114Z,14.70
2022-12-16T02:36:00.160Z,14.70
2022-12-16T02:38:56.129Z,14.70
2022-12-16T02:42:01.700Z,14.70
2022-12-16T02:45:03.253Z,14.70
2022-12-16T02:47:30.834Z,14.70
2022-12-16T02:49:57.506Z,14.80
2022-12-16T02:52:33.500Z,14.70
2022-12-16T02:55:03.057Z,14.80
2022-12-16T02:57:50.119Z,14.80
2022-12-16T03:00:22.499Z,14.80
2022-12-16T03:03:03.700Z,14.80
2022-12-16T03:05:37.713Z,14.80
2022-12-16T03:08:08.693Z,14.80
2022-12-16T03:10:41.057Z,17.40
2022-12-16T03:13:10.683Z,14.80
2022-12-16T03:15:38.957Z,14.90
2022-12-16T03:18:09.211Z,14.90
2022-12-16T03:20:52.232Z,14.90
2022-12-16T03:23:27.599Z,14.90
2022-12-16T03:26:00.694Z,14.90
2022-12-16T03:28:50.605Z,14.90
2022-12-16T03:31:26.317Z,14.90
2022-12-16T03:34:29.151Z,14.90
2022-12-16T03:37:02.241Z,14.90
2022-12-16T03:39:29.930Z,14.90
2022-12-16T03:41:57.013Z,14.90
2022-12-16T03:44:25.180Z,14.90
2022-12-16T03:46:52.588Z,14.90
2022-12-16T03:49:19.413Z,14.90
2022-12-16T03:51:45.940Z,14.90
2022-12-16T03:54:12.491Z,14.90
2022-12-16T03:56:39.027Z,14.90
2022-12-16T03:59:05.751Z,14.90
2022-12-16T04:01:32.424Z,14.80
2022-12-16T04:03:59.115Z,14.80
2022-12-16T04:06:25.702Z,14.80
2022-12-16T04:08:52.237Z,14.80
2022-12-16T04:11:37.360Z,14.80
2022-12-16T04:14:22.713Z,14.80
2022-12-16T04:17:07.931Z,14.80
2022-12-16T04:19:55.387Z,14.80
2022-12-16T04:22:49.145Z,14.80
2022-12-16T04:25:19.615Z,14.80
2022-12-16T04:27:48.863Z,14.80
2022-12-16T04:30:19.832Z,14.80
2022-12-16T04:33:21.765Z,14.80
2022-12-16T04:38:52.955Z,14.80
2022-12-16T04:41:38.353Z,14.80
2022-12-16T04:44:24.237Z,14.80
2022-12-16T04:47:09.595Z,14.90
2022-12-16T04:49:54.904Z,14.90
2022-12-16T04:52:40.281Z,14.90
2022-12-16T04:55:26.182Z,14.90
2022-12-16T04:58:13.497Z,14.90
2022-12-16T05:00:59.824Z,14.90
2022-12-16T05:03:46.001Z,14.90
2022-12-16T05:06:31.896Z,14.90
2022-12-16T05:09:17.745Z,14.90
2022-12-16T05:12:03.702Z,14.90
2022-12-16T05:17:34.956Z,14.90
2022-12-16T05:20:20.247Z,14.90
2022-12-16T05:23:05.799Z,14.90
2022-12-16T05:25:51.055Z,14.90
2022-12-16T05:28:37.543Z,14.90
2022-12-16T05:31:22.939Z,14.90
2022-12-16T05:34:08.012Z,14.90
2022-12-16T05:36:53.291Z,14.90
2022-12-16T05:39:38.461Z,14.90
2022-12-16T05:42:24.332Z,14.90
2022-12-16T05:45:09.630Z,14.90
2022-12-16T05:47:55.021Z,14.90
2022-12-16T05:50:43.413Z,14.90
2022-12-16T05:56:15.179Z,14.80
2022-12-16T05:59:00.426Z,14.80
2022-12-16T06:01:45.635Z,14.80
2022-12-16T06:05:03.240Z,14.90
2022-12-16T06:07:48.579Z,14.80
2022-12-16T06:10:33.964Z,14.80
2022-12-16T06:16:08.879Z,13.70
2022-12-16T06:18:54.204Z,13.50
2022-12-16T06:24:25.473Z,14.40
2022-12-16T06:27:10.752Z,14.50
2022-12-16T06:29:56.021Z,14.70
2022-12-16T06:32:41.644Z,14.70
2022-12-16T06:35:27.122Z,14.80
2022-12-16T06:38:12.489Z,14.80
2022-12-16T06:41:00.249Z,14.90
2022-12-16T06:49:17.304Z,14.90
2022-12-16T06:52:02.630Z,14.90
2022-12-16T06:54:47.931Z,14.90
2022-12-16T06:57:33.293Z,14.90
2022-12-16T07:00:18.631Z,14.90
2022-12-16T07:03:04.748Z,14.90
2022-12-16T07:05:49.827Z,14.90
2022-12-16T07:08:35.259Z,14.90
2022-12-16T07:11:20.470Z,15.00
2022-12-16T07:14:05.845Z,11.20
2022-12-16T07:16:51.361Z,11.70
2022-12-16T07:19:36.667Z,12.90
2022-12-16T07:22:22.060Z,13.50
2022-12-16T07:25:07.312Z,13.90
2022-12-16T07:27:52.520Z,14.20
2022-12-16T07:33:23.655Z,14.40
2022-12-16T07:36:09.060Z,14.50
2022-12-16T07:38:54.329Z,14.50
2022-12-16T07:41:39.681Z,14.60
2022-12-16T07:44:24.610Z,14.60
2022-12-16T07:47:10.087Z,14.70
2022-12-16T07:49:55.680Z,14.70
2022-12-16T07:52:41.282Z,14.80
2022-12-16T07:55:27.030Z,14.80
2022-12-16T07:58:12.296Z,14.90
2022-12-16T08:00:57.763Z,14.90
2022-12-16T08:03:43.103Z,14.90
2022-12-16T08:06:28.496Z,14.90
2022-12-16T08:09:14.050Z,14.90
2022-12-16T08:11:59.164Z,14.90
2022-12-16T08:14:44.618Z,14.60
2022-12-16T08:17:29.775Z,14.70
2022-12-16T08:20:15.167Z,14.80
2022-12-16T08:23:00.500Z,8.80
2022-12-16T08:25:45.749Z,8.30
2022-12-16T08:28:31.275Z,10.20
2022-12-16T08:31:16.265Z,11.50
2022-12-16T08:36:47.581Z,12.90
2022-12-16T08:39:32.822Z,13.30
2022-12-16T08:42:18.270Z,13.60
2022-12-16T08:45:03.260Z,13.80
2022-12-16T08:53:20.208Z,14.10
2022-12-16T08:56:05.784Z,14.20
2022-12-16T08:58:51.059Z,14.20
2022-12-16T09:01:38.037Z,14.30
2022-12-16T09:04:23.346Z,14.40
2022-12-16T09:07:08.407Z,14.40
2022-12-16T09:09:54.213Z,14.50
2022-12-16T09:12:39.404Z,14.50
2022-12-16T09:15:25.086Z,14.50
2022-12-16T09:18:14.677Z,14.50
2022-12-16T09:20:59.914Z,14.60
2022-12-16T09:23:45.337Z,14.60
2022-12-16T09:26:30.706Z,14.60
2022-12-16T09:29:16.202Z,14.60
2022-12-16T09:32:01.501Z,14.70
2022-12-16T09:34:46.791Z,15.80
2022-12-16T09:37:32.067Z,14.70
2022-12-16T09:40:17.460Z,14.80
2022-12-16T09:43:24.904Z,14.80
2022-12-16T09:46:48.889Z,14.80
2022-12-16T09:50:03.810Z,14.80
2022-12-16T09:52:57.872Z,14.70
2022-12-16T09:55:51.844Z,14.80
2022-12-16T09:58:41.057Z,14.80
2022-12-16T10:01:31.219Z,14.80
2022-12-16T10:04:16.936Z,14.80
2022-12-16T10:07:11.082Z,14.80
2022-12-16T10:10:18.691Z,14.70
2022-12-16T10:13:36.950Z,14.70
2022-12-16T10:16:43.479Z,14.70
2022-12-16T10:19:52.257Z,14.80
2022-12-16T10:22:59.986Z,14.80
2022-12-16T10:25:53.300Z,14.80
2022-12-16T10:28:55.491Z,16.30
2022-12-16T10:31:40.764Z,14.90
2022-12-16T10:34:53.950Z,14.90
2022-12-16T10:38:00.598Z,14.90
2022-12-16T10:40:49.095Z,12.20
2022-12-16T10:43:43.033Z,10.00
2022-12-16T10:46:42.543Z,11.30
2022-12-16T10:49:33.865Z,12.50
2022-12-16T10:52:19.644Z,14.70
2022-12-16T10:55:10.587Z,13.80
2022-12-16T10:58:23.509Z,14.10
2022-12-16T11:01:11.048Z,14.30
2022-12-16T11:03:58.638Z,14.40
2022-12-16T11:06:58.641Z,14.60
2022-12-16T11:10:01.668Z,14.70
2022-12-16T11:12:51.170Z,14.70
2022-12-16T11:15:43.888Z,14.80
2022-12-16T11:18:33.263Z,14.80
2022-12-16T11:21:30.754Z,14.70
2022-12-16T11:24:31.017Z,14.90
2022-12-16T11:27:25.208Z,15.00
2022-12-16T11:30:31.757Z,15.10
2022-12-16T11:33:21.200Z,15.10
2022-12-16T11:36:13.697Z,15.20
2022-12-16T11:39:05.124Z,15.30
2022-12-16T11:42:04.757Z,15.40
2022-12-16T11:45:07.323Z,15.40
2022-12-16T11:48:07.833Z,15.40
2022-12-16T11:50:58.550Z,15.50
2022-12-16T11:53:46.989Z,15.50
2022-12-16T11:56:38.900Z,15.60
2022-12-16T11:59:55.360Z,15.40
2022-12-16T12:03:00.249Z,15.40
2022-12-16T12:06:22.307Z,15.40
2022-12-16T12:09:21.100Z,15.40
2022-12-16T12:12:19.035Z,15.40
2022-12-16T12:15:11.605Z,15.30
2022-12-16T12:18:07.057Z,15.30
2022-12-16T12:20:54.932Z,15.40
2022-12-16T12:23:48.546Z,15.30
2022-12-16T12:26:42.690Z,15.50
2022-12-16T12:29:30.659Z,15.40
2022-12-16T12:32:23.500Z,15.60
2022-12-16T12:35:25.919Z,15.50
2022-12-16T12:38:24.947Z,15.40
2022-12-16T12:41:18.626Z,15.40
2022-12-16T12:44:20.907Z,15.40
2022-12-16T12:47:13.852Z,15.40
2022-12-16T12:50:23.221Z,15.40
2022-12-16T12:53:20.165Z,15.40
2022-12-16T12:56:42.307Z,15.50
2022-12-16T12:59:36.316Z,15.50
2022-12-16T13:02:24.375Z,15.50
2022-12-16T13:05:11.134Z,15.50
2022-12-16T13:07:56.395Z,15.60
2022-12-16T13:10:44.161Z,15.60
2022-12-16T13:13:49.565Z,15.60
2022-12-16T13:17:03.739Z,15.60
2022-12-16T13:19:48.912Z,15.60
2022-12-16T13:22:51.054Z,15.60
2022-12-16T13:25:55.932Z,15.60
2022-12-16T13:28:52.946Z,15.60
2022-12-16T13:31:39.021Z,15.60
2022-12-16T13:34:38.318Z,15.60
2022-12-16T13:37:30.976Z,15.70
2022-12-16T13:40:31.161Z,15.60
2022-12-16T13:43:20.686Z,15.60
2022-12-16T13:46:23.715Z,15.60
2022-12-16T13:49:09.111Z,15.50
2022-12-16T13:51:56.941Z,15.50
2022-12-16T13:54:53.046Z,15.50
2022-12-16T13:57:42.025Z,15.50
2022-12-16T14:00:39.731Z,15.50
2022-12-16T14:03:42.095Z,15.40
2022-12-16T14:06:38.032Z,15.40
2022-12-16T14:09:23.483Z,15.20
2022-12-16T14:12:17.983Z,15.20
2022-12-16T14:15:19.072Z,15.30
2022-12-16T14:18:37.005Z,15.30
2022-12-16T14:21:30.214Z,15.30
2022-12-16T14:24:23.943Z,15.30
2022-12-16T14:27:09.293Z,15.30
2022-12-16T14:29:54.554Z,15.30
2022-12-16T14:32:51.021Z,15.40
2022-12-16T14:35:39.628Z,15.40
2022-12-16T14:38:39.749Z,15.40
2022-12-16T14:41:29.070Z,15.40
2022-12-16T14:44:14.293Z,15.40
2022-12-16T14:46:59.708Z,15.50
2022-12-16T14:50:01.218Z,15.50
2022-12-16T14:52:46.355Z,15.50
2022-12-16T14:55:44.013Z,15.50
2022-12-16T14:58:31.807Z,15.50
2022-12-16T15:01:38.608Z,15.40
2022-12-16T15:04:33.022Z,15.40
2022-12-16T15:07:20.699Z,15.50
2022-12-16T15:10:11.494Z,15.40
2022-12-16T15:13:00.194Z,15.40
2022-12-16T15:16:17.252Z,15.40
2022-12-16T15:19:07.202Z,15.40
2022-12-16T15:21:53.492Z,15.40
2022-12-16T15:24:42.406Z,15.40
2022-12-16T15:27:39.327Z,15.40
2022-12-16T15:31:02.107Z,15.40
2022-12-16T15:33:57.862Z,15.40
2022-12-16T15:36:50.797Z,15.40
2022-12-16T15:39:48.325Z,15.40
2022-12-16T15:42:40.019Z,15.30
2022-12-16T15:45:36.895Z,15.30
2022-12-16T15:48:39.060Z,15.30
2022-12-16T15:52:15.254Z,15.30
2022-12-16T15:55:12.164Z,15.30
2022-12-16T15:57:58.307Z,15.30
2022-12-16T16:00:49.004Z,15.30
2022-12-16T16:03:46.855Z,15.20
2022-12-16T16:06:57.107Z,15.20
2022-12-16T16:09:47.317Z,13.10
2022-12-16T16:12:34.678Z,13.90
2022-12-16T16:15:20.879Z,14.40
2022-12-16T16:18:08.747Z,14.70
2022-12-16T16:20:54.100Z,14.80
2022-12-16T16:23:39.528Z,14.90
2022-12-16T16:26:24.970Z,15.00
2022-12-16T16:29:10.166Z,15.00
2022-12-16T16:31:59.405Z,15.10
2022-12-16T16:34:48.529Z,15.10
2022-12-16T16:37:36.457Z,15.20
2022-12-16T16:40:37.022Z,15.20
2022-12-16T16:43:22.193Z,15.20
2022-12-16T16:46:13.186Z,15.20
2022-12-16T16:48:58.925Z,15.20
2022-12-16T16:51:44.352Z,15.20
2022-12-16T16:54:29.638Z,15.20
2022-12-16T16:57:14.780Z,15.20
2022-12-16T17:00:00.214Z,15.20
2022-12-16T17:02:45.689Z,14.60
2022-12-16T17:05:31.500Z,14.70
2022-12-16T17:08:16.945Z,14.90
2022-12-16T17:11:02.704Z,15.00
2022-12-16T17:13:48.006Z,15.10
2022-12-16T17:16:33.225Z,15.00
2022-12-16T17:19:18.337Z,14.70
2022-12-16T17:22:03.665Z,14.80
2022-12-16T17:24:53.790Z,14.90
2022-12-16T17:27:42.558Z,15.00
2022-12-16T17:30:46.608Z,15.10
2022-12-16T17:33:34.183Z,15.10
2022-12-16T17:36:19.998Z,15.10
2022-12-16T17:39:05.780Z,15.10
2022-12-16T17:41:52.216Z,15.20
2022-12-16T17:44:38.284Z,15.20
2022-12-16T17:47:23.576Z,15.20
2022-12-16T17:50:08.863Z,15.20
2022-12-16T17:52:54.276Z,15.20
2022-12-16T17:55:39.621Z,15.20
2022-12-16T17:58:24.845Z,15.20
2022-12-16T18:01:10.333Z,15.20
2022-12-16T18:03:55.629Z,15.20
2022-12-16T18:06:40.953Z,15.20
2022-12-16T18:09:26.233Z,15.30
2022-12-16T18:12:11.521Z,15.30
2022-12-16T18:14:56.784Z,15.30
2022-12-16T18:17:42.024Z,15.30
2022-12-16T18:20:27.277Z,15.30
2022-12-16T18:23:12.543Z,15.30
2022-12-16T18:25:57.752Z,15.30
2022-12-16T18:28:43.251Z,15.40
2022-12-16T18:31:28.658Z,15.30
2022-12-16T18:34:13.965Z,13.60
2022-12-16T18:36:59.266Z,9.40
2022-12-16T18:39:44.705Z,7.90
2022-12-16T18:42:30.049Z,9.80
2022-12-16T18:45:15.275Z,11.30
2022-12-16T18:48:00.613Z,12.30
2022-12-16T18:50:45.916Z,12.90
2022-12-16T18:53:31.784Z,13.30
2022-12-16T18:56:22.508Z,13.60
2022-12-16T18:59:07.856Z,13.90
2022-12-16T19:02:13.143Z,14.10
2022-12-16T19:04:57.987Z,14.20
2022-12-16T19:07:43.144Z,14.30
2022-12-16T19:10:28.378Z,14.40
2022-12-16T19:13:15.409Z,14.50
2022-12-16T19:16:00.832Z,14.60
2022-12-16T19:18:46.279Z,14.60
2022-12-16T19:21:31.511Z,14.30
2022-12-16T19:24:16.802Z,14.50
2022-12-16T19:27:02.194Z,14.70
2022-12-16T19:29:47.493Z,14.70
2022-12-16T19:32:32.970Z,14.80
2022-12-16T19:35:18.092Z,14.80
2022-12-16T19:38:03.497Z,14.90
2022-12-16T19:40:48.707Z,14.90
2022-12-16T19:43:34.353Z,14.90
2022-12-16T19:46:19.765Z,15.00
2022-12-16T19:49:04.930Z,15.10
2022-12-16T19:51:50.223Z,15.10
2022-12-16T19:54:35.551Z,15.10
2022-12-16T19:57:20.774Z,15.10
2022-12-16T20:00:06.159Z,15.10
2022-12-16T20:02:51.384Z,15.10
2022-12-16T20:05:57.079Z,15.10
2022-12-16T20:08:42.146Z,15.10
2022-12-16T20:11:27.897Z,15.10
2022-12-16T20:14:14.157Z,15.10
2022-12-16T20:16:59.908Z,15.00
2022-12-16T20:19:45.312Z,15.00
2022-12-16T20:22:30.683Z,15.00
2022-12-16T20:25:15.956Z,15.00
2022-12-16T20:28:01.267Z,15.00
2022-12-16T20:30:46.648Z,15.00
2022-12-16T20:33:33.455Z,15.00
2022-12-16T20:36:21.001Z,15.00
2022-12-16T20:39:06.174Z,15.10
2022-12-16T20:41:51.769Z,15.10
2022-12-16T20:44:37.121Z,15.10
2022-12-16T20:47:23.919Z,15.10
2022-12-16T20:50:09.229Z,15.10
2022-12-16T20:52:54.637Z,15.10
2022-12-16T20:55:41.515Z,15.20
2022-12-16T20:58:26.601Z,15.30
2022-12-16T21:01:12.753Z,15.30
2022-12-16T21:03:58.124Z,15.40
2022-12-16T21:06:43.435Z,15.40
2022-12-16T21:09:28.870Z,15.40
2022-12-16T21:12:14.291Z,15.40
2022-12-16T21:14:59.576Z,15.50
2022-12-16T21:17:44.830Z,15.50
2022-12-16T21:20:30.084Z,15.50
2022-12-16T21:23:23.519Z,15.50
2022-12-16T21:28:56.119Z,15.50
2022-12-16T21:31:41.476Z,15.40
2022-12-16T21:34:26.865Z,15.30
2022-12-16T21:37:12.179Z,15.30
2022-12-16T21:42:44.491Z,15.20
2022-12-16T21:45:30.637Z,15.20
2022-12-16T21:48:15.917Z,15.20
2022-12-16T21:51:10.374Z,15.10
2022-12-16T21:53:55.659Z,15.10
2022-12-16T21:56:42.076Z,15.10
2022-12-16T22:02:13.315Z,15.10
2022-12-16T22:04:58.621Z,14.80
2022-12-16T22:07:45.508Z,14.80
2022-12-16T22:10:33.880Z,14.90
2022-12-16T22:13:19.142Z,14.90
2022-12-16T22:16:17.452Z,14.90
2022-12-16T22:19:02.759Z,14.90
2022-12-16T22:21:48.353Z,14.90
2022-12-16T22:24:33.568Z,14.90
2022-12-16T22:27:18.841Z,14.90
2022-12-16T22:33:00.532Z,14.80
2022-12-16T22:35:45.829Z,14.80
2022-12-16T22:38:31.236Z,14.80
2022-12-16T22:41:17.707Z,14.80
2022-12-16T22:44:03.818Z,14.80
2022-12-16T22:46:49.272Z,14.70
2022-12-16T22:49:34.516Z,14.70
2022-12-16T22:52:19.967Z,14.70
2022-12-16T22:55:05.348Z,14.60
2022-12-16T22:57:53.505Z,14.60
2022-12-16T23:00:38.806Z,14.60
2022-12-16T23:06:09.992Z,14.50
2022-12-16T23:08:55.289Z,14.60
2022-12-16T23:11:49.961Z,14.60
2022-12-16T23:14:40.918Z,14.50
2022-12-16T23:17:28.530Z,14.50
2022-12-16T23:20:13.717Z,14.50
2022-12-16T23:22:59.098Z,14.50
2022-12-16T23:25:44.479Z,14.50
2022-12-16T23:28:29.772Z,14.40
2022-12-16T23:31:17.195Z,14.40
2022-12-16T23:34:02.317Z,14.40
2022-12-16T23:36:47.783Z,14.40
2022-12-16T23:39:33.015Z,14.40
2022-12-16T23:42:18.279Z,14.40
2022-12-16T23:45:17.408Z,14.40
2022-12-16T23:48:02.702Z,14.40
2022-12-16T23:50:47.987Z,14.40
2022-12-16T23:53:33.392Z,14.30
2022-12-16T23:56:19.940Z,14.40
2022-12-16T23:59:08.043Z,14.40
